sensor_id;sensor_type;location;lat;lon;timestamp;temperature;humidity
3628;DHT22;1830;49.000;12.074;2023-07-31T00:01:19;16.10;99.90
3628;DHT22;1830;49.000;12.074;2023-07-31T00:03:46;16.10;99.90
3628;DHT22;1830;49.000;12.074;2023-07-31T00:06:14;16.00;99.90
3628;DHT22;1830;49.000;12.074;2023-07-31T00:08:41;16.00;99.90
3628;DHT22;1830;49.000;12.074;2023-07-31T00:11:08;16.00;99.90
3628;DHT22;1830;49.000;12.074;2023-07-31T00:13:34;15.90;99.90
3628;DHT22;1830;49.000;12.074;2023-07-31T00:16:02;15.90;99.90
3628;DHT22;1830;49.000;12.074;2023-07-31T00:18:29;15.90;99.90
3628;DHT22;1830;49.000;12.074;2023-07-31T00:20:56;15.80;99.90
3628;DHT22;1830;49.000;12.074;2023-07-31T00:23:24;15.80;99.90
3628;DHT22;1830;49.000;12.074;2023-07-31T00:25:51;15.80;99.90
3628;DHT22;1830;49.000;12.074;2023-07-31T00:28:17;15.80;99.90
3628;DHT22;1830;49.000;12.074;2023-07-31T00:30:44;15.80;99.90
3628;DHT22;1830;49.000;12.074;2023-07-31T00:33:11;15.80;99.90
3628;DHT22;1830;49.000;12.074;2023-07-31T00:35:38;15.80;99.90
3628;DHT22;1830;49.000;12.074;2023-07-31T00:38:04;15.70;99.90
3628;DHT22;1830;49.000;12.074;2023-07-31T00:40:36;15.70;99.90
3628;DHT22;1830;49.000;12.074;2023-07-31T00:43:03;15.60;99.90
3628;DHT22;1830;49.000;12.074;2023-07-31T00:45:30;15.70;99.90
3628;DHT22;1830;49.000;12.074;2023-07-31T00:47:58;15.60;99.90
3628;DHT22;1830;49.000;12.074;2023-07-31T00:50:25;15.60;99.90
3628;DHT22;1830;49.000;12.074;2023-07-31T00:52:53;15.60;99.90
3628;DHT22;1830;49.000;12.074;2023-07-31T00:55:20;15.60;99.90
3628;DHT22;1830;49.000;12.074;2023-07-31T00:57:49;15.70;99.90
3628;DHT22;1830;49.000;12.074;2023-07-31T01:00:18;15.60;99.90
3628;DHT22;1830;49.000;12.074;2023-07-31T01:02:45;15.50;99.90
3628;DHT22;1830;49.000;12.074;2023-07-31T01:05:12;15.60;99.90
3628;DHT22;1830;49.000;12.074;2023-07-31T01:07:44;15.50;99.90
3628;DHT22;1830;49.000;12.074;2023-07-31T01:10:16;15.50;99.90
3628;DHT22;1830;49.000;12.074;2023-07-31T01:12:45;15.50;99.90
3628;DHT22;1830;49.000;12.074;2023-07-31T01:15:13;15.50;99.90
3628;DHT22;1830;49.000;12.074;2023-07-31T01:17:43;15.40;99.90
3628;DHT22;1830;49.000;12.074;2023-07-31T01:20:12;15.40;99.90
3628;DHT22;1830;49.000;12.074;2023-07-31T01:22:54;15.30;99.90
3628;DHT22;1830;49.000;12.074;2023-07-31T01:25:56;15.30;99.90
3628;DHT22;1830;49.000;12.074;2023-07-31T01:28:31;15.30;99.90
3628;DHT22;1830;49.000;12.074;2023-07-31T01:31:00;15.40;99.90
3628;DHT22;1830;49.000;12.074;2023-07-31T01:33:29;15.40;99.90
3628;DHT22;1830;49.000;12.074;2023-07-31T01:35:56;15.30;99.90
3628;DHT22;1830;49.000;12.074;2023-07-31T01:38:23;15.40;99.90
3628;DHT22;1830;49.000;12.074;2023-07-31T01:40:51;15.40;99.90
3628;DHT22;1830;49.000;12.074;2023-07-31T01:43:19;15.40;99.90
3628;DHT22;1830;49.000;12.074;2023-07-31T01:45:46;15.40;99.90
3628;DHT22;1830;49.000;12.074;2023-07-31T01:50:46;15.40;99.90
3628;DHT22;1830;49.000;12.074;2023-07-31T01:53:13;15.40;99.90
3628;DHT22;1830;49.000;12.074;2023-07-31T01:55:40;15.30;99.90
3628;DHT22;1830;49.000;12.074;2023-07-31T01:58:06;15.30;99.90
3628;DHT22;1830;49.000;12.074;2023-07-31T02:00:34;15.30;99.90
3628;DHT22;1830;49.000;12.074;2023-07-31T02:03:01;15.30;99.90
3628;DHT22;1830;49.000;12.074;2023-07-31T02:05:28;15.30;99.90
3628;DHT22;1830;49.000;12.074;2023-07-31T02:07:55;15.20;99.90
3628;DHT22;1830;49.000;12.074;2023-07-31T02:10:21;15.20;99.90
3628;DHT22;1830;49.000;12.074;2023-07-31T02:12:48;15.20;99.90
3628;DHT22;1830;49.000;12.074;2023-07-31T02:15:15;15.20;99.90
3628;DHT22;1830;49.000;12.074;2023-07-31T02:17:43;15.20;99.90
3628;DHT22;1830;49.000;12.074;2023-07-31T02:20:10;15.10;99.90
3628;DHT22;1830;49.000;12.074;2023-07-31T02:22:37;15.10;99.90
3628;DHT22;1830;49.000;12.074;2023-07-31T02:25:04;15.10;99.90
3628;DHT22;1830;49.000;12.074;2023-07-31T02:27:31;15.10;99.90
3628;DHT22;1830;49.000;12.074;2023-07-31T02:29:58;15.10;99.90
3628;DHT22;1830;49.000;12.074;2023-07-31T02:32:25;15.10;99.90
3628;DHT22;1830;49.000;12.074;2023-07-31T02:34:53;15.10;99.90
3628;DHT22;1830;49.000;12.074;2023-07-31T02:37:20;15.10;99.90
3628;DHT22;1830;49.000;12.074;2023-07-31T02:39:47;15.00;99.90
3628;DHT22;1830;49.000;12.074;2023-07-31T02:42:14;15.00;99.90
3628;DHT22;1830;49.000;12.074;2023-07-31T02:44:41;14.90;99.90
3628;DHT22;1830;49.000;12.074;2023-07-31T02:47:07;14.80;99.90
3628;DHT22;1830;49.000;12.074;2023-07-31T02:49:34;14.80;99.90
3628;DHT22;1830;49.000;12.074;2023-07-31T02:52:03;14.80;99.90
3628;DHT22;1830;49.000;12.074;2023-07-31T02:54:29;14.80;99.90
3628;DHT22;1830;49.000;12.074;2023-07-31T02:56:56;14.80;99.90
3628;DHT22;1830;49.000;12.074;2023-07-31T02:59:23;14.70;99.90
3628;DHT22;1830;49.000;12.074;2023-07-31T03:01:50;14.80;99.90
3628;DHT22;1830;49.000;12.074;2023-07-31T03:04:17;14.80;99.90
3628;DHT22;1830;49.000;12.074;2023-07-31T03:06:44;14.70;99.90
3628;DHT22;1830;49.000;12.074;2023-07-31T03:09:12;14.70;99.90
3628;DHT22;1830;49.000;12.074;2023-07-31T03:11:39;14.70;99.90
3628;DHT22;1830;49.000;12.074;2023-07-31T03:14:05;14.70;99.90
3628;DHT22;1830;49.000;12.074;2023-07-31T03:16:32;14.70;99.90
3628;DHT22;1830;49.000;12.074;2023-07-31T03:18:59;14.70;99.90
3628;DHT22;1830;49.000;12.074;2023-07-31T03:21:25;14.70;99.90
3628;DHT22;1830;49.000;12.074;2023-07-31T03:23:52;14.60;99.90
3628;DHT22;1830;49.000;12.074;2023-07-31T03:26:20;14.60;99.90
3628;DHT22;1830;49.000;12.074;2023-07-31T03:28:47;14.70;99.90
3628;DHT22;1830;49.000;12.074;2023-07-31T03:31:15;14.70;99.90
3628;DHT22;1830;49.000;12.074;2023-07-31T03:33:41;14.70;99.90
3628;DHT22;1830;49.000;12.074;2023-07-31T03:36:08;14.70;99.90
3628;DHT22;1830;49.000;12.074;2023-07-31T03:38:35;14.60;99.90
3628;DHT22;1830;49.000;12.074;2023-07-31T03:41:01;14.60;99.90
3628;DHT22;1830;49.000;12.074;2023-07-31T03:43:30;14.60;99.90
3628;DHT22;1830;49.000;12.074;2023-07-31T03:45:56;14.60;99.90
3628;DHT22;1830;49.000;12.074;2023-07-31T03:48:23;14.60;99.90
3628;DHT22;1830;49.000;12.074;2023-07-31T03:50:50;14.70;99.90
3628;DHT22;1830;49.000;12.074;2023-07-31T03:53:16;14.70;99.90
3628;DHT22;1830;49.000;12.074;2023-07-31T03:55:43;14.70;99.90
3628;DHT22;1830;49.000;12.074;2023-07-31T03:58:10;14.70;99.90
3628;DHT22;1830;49.000;12.074;2023-07-31T04:00:40;14.60;99.90
3628;DHT22;1830;49.000;12.074;2023-07-31T04:03:06;14.60;99.90
3628;DHT22;1830;49.000;12.074;2023-07-31T04:05:38;14.60;99.90
3628;DHT22;1830;49.000;12.074;2023-07-31T04:08:05;14.60;99.90
3628;DHT22;1830;49.000;12.074;2023-07-31T04:10:32;14.60;99.90
3628;DHT22;1830;49.000;12.074;2023-07-31T04:12:59;14.60;99.90
3628;DHT22;1830;49.000;12.074;2023-07-31T04:15:25;14.60;99.90
3628;DHT22;1830;49.000;12.074;2023-07-31T04:17:53;14.50;99.90
3628;DHT22;1830;49.000;12.074;2023-07-31T04:20:20;14.50;99.90
3628;DHT22;1830;49.000;12.074;2023-07-31T04:22:48;14.50;99.90
3628;DHT22;1830;49.000;12.074;2023-07-31T04:25:15;14.60;99.90
3628;DHT22;1830;49.000;12.074;2023-07-31T04:27:41;14.60;99.90
3628;DHT22;1830;49.000;12.074;2023-07-31T04:30:09;14.60;99.90
3628;DHT22;1830;49.000;12.074;2023-07-31T04:32:35;14.70;99.90
3628;DHT22;1830;49.000;12.074;2023-07-31T04:35:04;14.70;99.90
3628;DHT22;1830;49.000;12.074;2023-07-31T04:37:31;14.70;99.90
3628;DHT22;1830;49.000;12.074;2023-07-31T04:39:58;14.70;99.90
3628;DHT22;1830;49.000;12.074;2023-07-31T04:42:25;14.70;99.90
3628;DHT22;1830;49.000;12.074;2023-07-31T04:44:51;14.70;99.90
3628;DHT22;1830;49.000;12.074;2023-07-31T04:47:19;14.80;99.90
3628;DHT22;1830;49.000;12.074;2023-07-31T04:49:45;14.80;99.90
3628;DHT22;1830;49.000;12.074;2023-07-31T04:52:14;14.90;99.90
3628;DHT22;1830;49.000;12.074;2023-07-31T04:54:40;14.90;99.90
3628;DHT22;1830;49.000;12.074;2023-07-31T04:57:07;15.20;99.90
3628;DHT22;1830;49.000;12.074;2023-07-31T04:59:34;15.10;99.90
3628;DHT22;1830;49.000;12.074;2023-07-31T05:02:01;15.10;99.90
3628;DHT22;1830;49.000;12.074;2023-07-31T05:04:28;15.10;99.90
3628;DHT22;1830;49.000;12.074;2023-07-31T05:06:54;15.00;99.90
3628;DHT22;1830;49.000;12.074;2023-07-31T05:09:24;15.00;99.90
3628;DHT22;1830;49.000;12.074;2023-07-31T05:11:50;15.00;99.90
3628;DHT22;1830;49.000;12.074;2023-07-31T05:14:17;15.10;99.90
3628;DHT22;1830;49.000;12.074;2023-07-31T05:16:45;15.00;99.90
3628;DHT22;1830;49.000;12.074;2023-07-31T05:19:12;15.10;99.90
3628;DHT22;1830;49.000;12.074;2023-07-31T05:21:40;15.10;99.90
3628;DHT22;1830;49.000;12.074;2023-07-31T05:24:07;15.10;99.90
3628;DHT22;1830;49.000;12.074;2023-07-31T05:26:35;15.10;99.90
3628;DHT22;1830;49.000;12.074;2023-07-31T05:29:02;15.20;99.90
3628;DHT22;1830;49.000;12.074;2023-07-31T05:31:29;15.20;99.90
3628;DHT22;1830;49.000;12.074;2023-07-31T05:33:57;15.20;99.90
3628;DHT22;1830;49.000;12.074;2023-07-31T05:36:24;15.20;99.90
3628;DHT22;1830;49.000;12.074;2023-07-31T05:38:51;15.30;99.90
3628;DHT22;1830;49.000;12.074;2023-07-31T05:41:18;15.30;99.90
3628;DHT22;1830;49.000;12.074;2023-07-31T05:43:46;15.30;99.90
3628;DHT22;1830;49.000;12.074;2023-07-31T05:46:13;15.30;99.90
3628;DHT22;1830;49.000;12.074;2023-07-31T05:48:39;15.40;99.90
3628;DHT22;1830;49.000;12.074;2023-07-31T05:51:06;15.40;99.90
3628;DHT22;1830;49.000;12.074;2023-07-31T05:53:33;15.50;99.90
3628;DHT22;1830;49.000;12.074;2023-07-31T05:56:01;15.50;99.90
3628;DHT22;1830;49.000;12.074;2023-07-31T05:58:28;15.70;99.90
3628;DHT22;1830;49.000;12.074;2023-07-31T06:00:56;15.70;99.90
3628;DHT22;1830;49.000;12.074;2023-07-31T06:03:23;15.70;99.90
3628;DHT22;1830;49.000;12.074;2023-07-31T06:05:50;15.70;99.90
3628;DHT22;1830;49.000;12.074;2023-07-31T06:08:16;15.70;99.90
3628;DHT22;1830;49.000;12.074;2023-07-31T06:10:43;15.70;99.90
3628;DHT22;1830;49.000;12.074;2023-07-31T06:13:10;15.70;99.90
3628;DHT22;1830;49.000;12.074;2023-07-31T06:15:37;15.70;99.90
3628;DHT22;1830;49.000;12.074;2023-07-31T06:18:05;15.80;99.90
3628;DHT22;1830;49.000;12.074;2023-07-31T06:20:33;15.80;99.90
3628;DHT22;1830;49.000;12.074;2023-07-31T06:23:00;15.80;99.90
3628;DHT22;1830;49.000;12.074;2023-07-31T06:25:26;15.90;99.90
3628;DHT22;1830;49.000;12.074;2023-07-31T06:27:53;16.00;99.90
3628;DHT22;1830;49.000;12.074;2023-07-31T06:30:20;16.00;99.90
3628;DHT22;1830;49.000;12.074;2023-07-31T06:32:47;16.10;99.90
3628;DHT22;1830;49.000;12.074;2023-07-31T06:35:15;16.20;99.90
3628;DHT22;1830;49.000;12.074;2023-07-31T06:37:42;16.30;99.90
3628;DHT22;1830;49.000;12.074;2023-07-31T06:40:10;16.30;99.90
3628;DHT22;1830;49.000;12.074;2023-07-31T06:42:37;16.50;99.90
3628;DHT22;1830;49.000;12.074;2023-07-31T06:45:05;16.50;99.90
3628;DHT22;1830;49.000;12.074;2023-07-31T06:47:32;16.60;99.90
3628;DHT22;1830;49.000;12.074;2023-07-31T06:49:59;16.70;99.90
3628;DHT22;1830;49.000;12.074;2023-07-31T06:52:27;16.80;99.90
3628;DHT22;1830;49.000;12.074;2023-07-31T06:55:01;16.80;99.90
3628;DHT22;1830;49.000;12.074;2023-07-31T06:57:29;16.80;99.90
3628;DHT22;1830;49.000;12.074;2023-07-31T06:59:55;16.90;99.90
3628;DHT22;1830;49.000;12.074;2023-07-31T07:02:22;16.90;99.90
3628;DHT22;1830;49.000;12.074;2023-07-31T07:04:49;17.00;99.90
3628;DHT22;1830;49.000;12.074;2023-07-31T07:07:17;17.10;99.90
3628;DHT22;1830;49.000;12.074;2023-07-31T07:09:45;17.10;99.90
3628;DHT22;1830;49.000;12.074;2023-07-31T07:12:11;17.20;99.90
3628;DHT22;1830;49.000;12.074;2023-07-31T07:14:38;17.30;99.90
3628;DHT22;1830;49.000;12.074;2023-07-31T07:17:05;17.30;99.90
3628;DHT22;1830;49.000;12.074;2023-07-31T07:19:32;17.30;99.90
3628;DHT22;1830;49.000;12.074;2023-07-31T07:21:59;17.30;99.90
3628;DHT22;1830;49.000;12.074;2023-07-31T07:24:27;17.40;99.90
3628;DHT22;1830;49.000;12.074;2023-07-31T07:26:55;17.50;99.90
3628;DHT22;1830;49.000;12.074;2023-07-31T07:29:22;17.50;99.90
3628;DHT22;1830;49.000;12.074;2023-07-31T07:31:49;17.50;99.90
3628;DHT22;1830;49.000;12.074;2023-07-31T07:34:15;17.60;99.90
3628;DHT22;1830;49.000;12.074;2023-07-31T07:36:42;17.70;99.90
3628;DHT22;1830;49.000;12.074;2023-07-31T07:39:10;17.70;99.90
3628;DHT22;1830;49.000;12.074;2023-07-31T07:41:37;17.70;99.90
3628;DHT22;1830;49.000;12.074;2023-07-31T07:44:05;17.70;99.90
3628;DHT22;1830;49.000;12.074;2023-07-31T07:46:32;17.70;99.90
3628;DHT22;1830;49.000;12.074;2023-07-31T07:48:59;17.70;99.90
3628;DHT22;1830;49.000;12.074;2023-07-31T07:51:25;17.70;99.90
3628;DHT22;1830;49.000;12.074;2023-07-31T07:53:52;17.70;99.90
3628;DHT22;1830;49.000;12.074;2023-07-31T07:56:19;17.70;99.90
3628;DHT22;1830;49.000;12.074;2023-07-31T07:58:48;17.70;99.90
3628;DHT22;1830;49.000;12.074;2023-07-31T08:01:16;17.70;99.90
3628;DHT22;1830;49.000;12.074;2023-07-31T08:03:43;17.80;99.90
3628;DHT22;1830;49.000;12.074;2023-07-31T08:06:10;17.80;99.90
3628;DHT22;1830;49.000;12.074;2023-07-31T08:08:37;17.90;99.90
3628;DHT22;1830;49.000;12.074;2023-07-31T08:11:04;18.00;99.90
3628;DHT22;1830;49.000;12.074;2023-07-31T08:13:31;18.10;99.90
3628;DHT22;1830;49.000;12.074;2023-07-31T08:15:58;18.20;99.90
3628;DHT22;1830;49.000;12.074;2023-07-31T08:18:26;18.20;99.90
3628;DHT22;1830;49.000;12.074;2023-07-31T08:20:53;18.20;99.90
3628;DHT22;1830;49.000;12.074;2023-07-31T08:23:20;18.20;99.90
3628;DHT22;1830;49.000;12.074;2023-07-31T08:25:47;18.10;99.90
3628;DHT22;1830;49.000;12.074;2023-07-31T08:28:15;18.10;99.90
3628;DHT22;1830;49.000;12.074;2023-07-31T08:30:42;18.10;99.90
3628;DHT22;1830;49.000;12.074;2023-07-31T08:33:09;18.10;99.90
3628;DHT22;1830;49.000;12.074;2023-07-31T08:35:37;18.10;99.90
3628;DHT22;1830;49.000;12.074;2023-07-31T08:38:04;18.10;99.90
3628;DHT22;1830;49.000;12.074;2023-07-31T08:40:30;18.20;99.90
3628;DHT22;1830;49.000;12.074;2023-07-31T08:42:58;18.30;99.90
3628;DHT22;1830;49.000;12.074;2023-07-31T08:45:28;18.20;99.90
3628;DHT22;1830;49.000;12.074;2023-07-31T08:47:55;18.40;99.90
3628;DHT22;1830;49.000;12.074;2023-07-31T08:50:22;18.40;99.90
3628;DHT22;1830;49.000;12.074;2023-07-31T08:52:52;18.50;99.90
3628;DHT22;1830;49.000;12.074;2023-07-31T08:55:19;18.50;99.90
3628;DHT22;1830;49.000;12.074;2023-07-31T08:57:50;18.50;99.90
3628;DHT22;1830;49.000;12.074;2023-07-31T09:00:18;18.50;99.90
3628;DHT22;1830;49.000;12.074;2023-07-31T09:02:48;18.50;99.90
3628;DHT22;1830;49.000;12.074;2023-07-31T09:05:18;18.50;99.90
3628;DHT22;1830;49.000;12.074;2023-07-31T09:07:47;18.60;99.90
3628;DHT22;1830;49.000;12.074;2023-07-31T09:10:16;18.60;99.90
3628;DHT22;1830;49.000;12.074;2023-07-31T09:12:43;18.60;99.90
3628;DHT22;1830;49.000;12.074;2023-07-31T09:15:11;18.70;99.90
3628;DHT22;1830;49.000;12.074;2023-07-31T09:17:38;18.70;99.90
3628;DHT22;1830;49.000;12.074;2023-07-31T09:20:13;18.80;99.90
3628;DHT22;1830;49.000;12.074;2023-07-31T09:22:41;19.00;99.90
3628;DHT22;1830;49.000;12.074;2023-07-31T09:25:16;19.10;99.90
3628;DHT22;1830;49.000;12.074;2023-07-31T09:27:48;19.20;99.90
3628;DHT22;1830;49.000;12.074;2023-07-31T09:30:15;19.20;99.90
3628;DHT22;1830;49.000;12.074;2023-07-31T09:32:43;19.30;99.90
3628;DHT22;1830;49.000;12.074;2023-07-31T09:35:16;19.20;99.90
3628;DHT22;1830;49.000;12.074;2023-07-31T09:37:48;19.30;99.90
3628;DHT22;1830;49.000;12.074;2023-07-31T09:40:27;19.30;99.90
3628;DHT22;1830;49.000;12.074;2023-07-31T09:42:56;19.30;99.90
3628;DHT22;1830;49.000;12.074;2023-07-31T09:45:24;19.30;99.90
3628;DHT22;1830;49.000;12.074;2023-07-31T09:47:51;19.30;99.90
3628;DHT22;1830;49.000;12.074;2023-07-31T09:50:19;19.30;99.90
3628;DHT22;1830;49.000;12.074;2023-07-31T09:52:46;19.40;99.90
3628;DHT22;1830;49.000;12.074;2023-07-31T09:55:13;19.50;99.90
3628;DHT22;1830;49.000;12.074;2023-07-31T09:57:45;19.50;99.90
3628;DHT22;1830;49.000;12.074;2023-07-31T10:00:14;19.50;99.90
3628;DHT22;1830;49.000;12.074;2023-07-31T10:02:41;19.60;99.90
3628;DHT22;1830;49.000;12.074;2023-07-31T10:05:13;19.60;99.90
3628;DHT22;1830;49.000;12.074;2023-07-31T10:07:43;19.60;99.90
3628;DHT22;1830;49.000;12.074;2023-07-31T10:10:13;19.60;99.90
3628;DHT22;1830;49.000;12.074;2023-07-31T10:12:44;19.60;99.90
3628;DHT22;1830;49.000;12.074;2023-07-31T10:15:12;19.70;99.90
3628;DHT22;1830;49.000;12.074;2023-07-31T10:17:39;19.80;99.90
3628;DHT22;1830;49.000;12.074;2023-07-31T10:20:07;19.90;99.90
3628;DHT22;1830;49.000;12.074;2023-07-31T10:22:34;20.10;99.90
3628;DHT22;1830;49.000;12.074;2023-07-31T10:25:01;20.10;99.90
3628;DHT22;1830;49.000;12.074;2023-07-31T10:27:28;20.20;99.90
3628;DHT22;1830;49.000;12.074;2023-07-31T10:29:57;20.30;99.90
3628;DHT22;1830;49.000;12.074;2023-07-31T10:32:25;20.50;99.90
3628;DHT22;1830;49.000;12.074;2023-07-31T10:34:54;20.50;99.90
3628;DHT22;1830;49.000;12.074;2023-07-31T10:37:26;20.50;99.90
3628;DHT22;1830;49.000;12.074;2023-07-31T10:39:58;20.60;99.90
3628;DHT22;1830;49.000;12.074;2023-07-31T10:42:30;20.60;99.70
3628;DHT22;1830;49.000;12.074;2023-07-31T10:45:00;20.70;99.90
3628;DHT22;1830;49.000;12.074;2023-07-31T10:47:27;20.80;98.90
3628;DHT22;1830;49.000;12.074;2023-07-31T10:52:54;20.90;98.80
3628;DHT22;1830;49.000;12.074;2023-07-31T10:55:29;20.90;99.10
3628;DHT22;1830;49.000;12.074;2023-07-31T10:57:57;20.90;98.90
3628;DHT22;1830;49.000;12.074;2023-07-31T11:00:27;20.90;98.70
3628;DHT22;1830;49.000;12.074;2023-07-31T11:02:59;20.90;98.90
3628;DHT22;1830;49.000;12.074;2023-07-31T11:05:49;21.10;99.50
3628;DHT22;1830;49.000;12.074;2023-07-31T11:08:19;21.30;98.00
3628;DHT22;1830;49.000;12.074;2023-07-31T11:10:47;21.30;97.10
3628;DHT22;1830;49.000;12.074;2023-07-31T11:13:14;21.40;98.50
3628;DHT22;1830;49.000;12.074;2023-07-31T11:15:42;21.40;98.30
3628;DHT22;1830;49.000;12.074;2023-07-31T11:18:09;21.40;97.80
3628;DHT22;1830;49.000;12.074;2023-07-31T11:20:38;21.50;98.00
3628;DHT22;1830;49.000;12.074;2023-07-31T11:23:07;21.50;97.40
3628;DHT22;1830;49.000;12.074;2023-07-31T11:25:34;21.40;96.90
3628;DHT22;1830;49.000;12.074;2023-07-31T11:28:06;21.50;97.40
3628;DHT22;1830;49.000;12.074;2023-07-31T11:30:33;21.70;96.40
3628;DHT22;1830;49.000;12.074;2023-07-31T11:33:03;21.90;95.90
3628;DHT22;1830;49.000;12.074;2023-07-31T11:35:31;21.90;96.00
3628;DHT22;1830;49.000;12.074;2023-07-31T11:37:58;21.70;95.80
3628;DHT22;1830;49.000;12.074;2023-07-31T11:40:25;21.70;96.30
3628;DHT22;1830;49.000;12.074;2023-07-31T11:42:56;21.90;96.00
3628;DHT22;1830;49.000;12.074;2023-07-31T11:45:25;22.10;96.00
3628;DHT22;1830;49.000;12.074;2023-07-31T11:47:54;22.30;95.90
3628;DHT22;1830;49.000;12.074;2023-07-31T11:50:23;22.10;94.80
3628;DHT22;1830;49.000;12.074;2023-07-31T11:52:53;22.20;95.00
3628;DHT22;1830;49.000;12.074;2023-07-31T11:55:22;22.40;94.60
3628;DHT22;1830;49.000;12.074;2023-07-31T11:57:49;22.50;94.50
3628;DHT22;1830;49.000;12.074;2023-07-31T12:00:17;22.50;94.60
3628;DHT22;1830;49.000;12.074;2023-07-31T12:02:44;22.80;94.70
3628;DHT22;1830;49.000;12.074;2023-07-31T12:05:12;22.80;93.90
3628;DHT22;1830;49.000;12.074;2023-07-31T12:07:47;22.70;93.60
3628;DHT22;1830;49.000;12.074;2023-07-31T12:10:28;23.00;93.70
3628;DHT22;1830;49.000;12.074;2023-07-31T12:13:03;23.20;94.10
3628;DHT22;1830;49.000;12.074;2023-07-31T12:15:36;23.20;93.30
3628;DHT22;1830;49.000;12.074;2023-07-31T12:18:05;23.10;94.00
3628;DHT22;1830;49.000;12.074;2023-07-31T12:20:32;23.00;93.30
3628;DHT22;1830;49.000;12.074;2023-07-31T12:23:01;23.20;93.40
3628;DHT22;1830;49.000;12.074;2023-07-31T12:25:32;23.20;93.70
3628;DHT22;1830;49.000;12.074;2023-07-31T12:28:04;23.50;93.80
3628;DHT22;1830;49.000;12.074;2023-07-31T12:30:33;23.60;93.50
3628;DHT22;1830;49.000;12.074;2023-07-31T12:33:03;23.70;92.90
3628;DHT22;1830;49.000;12.074;2023-07-31T12:35:36;23.90;93.00
3628;DHT22;1830;49.000;12.074;2023-07-31T12:38:04;23.90;93.00
3628;DHT22;1830;49.000;12.074;2023-07-31T12:40:31;24.00;93.10
3628;DHT22;1830;49.000;12.074;2023-07-31T12:43:00;24.10;92.80
3628;DHT22;1830;49.000;12.074;2023-07-31T12:45:27;23.80;92.40
3628;DHT22;1830;49.000;12.074;2023-07-31T12:47:54;23.60;92.70
3628;DHT22;1830;49.000;12.074;2023-07-31T12:50:20;23.60;91.70
3628;DHT22;1830;49.000;12.074;2023-07-31T12:52:48;23.60;92.20
3628;DHT22;1830;49.000;12.074;2023-07-31T12:55:16;23.40;92.80
3628;DHT22;1830;49.000;12.074;2023-07-31T12:57:44;23.40;92.80
3628;DHT22;1830;49.000;12.074;2023-07-31T13:00:12;23.80;93.20
3628;DHT22;1830;49.000;12.074;2023-07-31T13:02:39;23.70;92.70
3628;DHT22;1830;49.000;12.074;2023-07-31T13:05:06;24.00;92.20
3628;DHT22;1830;49.000;12.074;2023-07-31T13:07:33;24.20;91.60
3628;DHT22;1830;49.000;12.074;2023-07-31T13:10:00;24.30;91.40
3628;DHT22;1830;49.000;12.074;2023-07-31T13:12:28;24.30;91.80
3628;DHT22;1830;49.000;12.074;2023-07-31T13:14:55;24.40;91.80
3628;DHT22;1830;49.000;12.074;2023-07-31T13:17:22;24.50;91.20
3628;DHT22;1830;49.000;12.074;2023-07-31T13:19:48;24.50;90.80
3628;DHT22;1830;49.000;12.074;2023-07-31T13:22:15;24.70;91.10
3628;DHT22;1830;49.000;12.074;2023-07-31T13:24:42;24.40;90.40
3628;DHT22;1830;49.000;12.074;2023-07-31T13:27:08;24.20;90.50
3628;DHT22;1830;49.000;12.074;2023-07-31T13:29:37;24.10;90.80
3628;DHT22;1830;49.000;12.074;2023-07-31T13:32:04;24.40;91.30
3628;DHT22;1830;49.000;12.074;2023-07-31T13:34:31;24.30;90.40
3628;DHT22;1830;49.000;12.074;2023-07-31T13:36:58;24.40;91.50
3628;DHT22;1830;49.000;12.074;2023-07-31T13:39:25;24.60;91.30
3628;DHT22;1830;49.000;12.074;2023-07-31T13:41:51;24.90;91.30
3628;DHT22;1830;49.000;12.074;2023-07-31T13:44:18;24.90;90.20
3628;DHT22;1830;49.000;12.074;2023-07-31T13:47:00;24.50;90.20
3628;DHT22;1830;49.000;12.074;2023-07-31T13:49:29;24.50;90.60
3628;DHT22;1830;49.000;12.074;2023-07-31T14:04:05;24.50;91.10
3628;DHT22;1830;49.000;12.074;2023-07-31T14:06:32;24.50;90.90
3628;DHT22;1830;49.000;12.074;2023-07-31T14:08:59;24.60;90.50
3628;DHT22;1830;49.000;12.074;2023-07-31T14:11:26;24.90;90.10
3628;DHT22;1830;49.000;12.074;2023-07-31T14:13:55;25.10;90.80
3628;DHT22;1830;49.000;12.074;2023-07-31T14:16:22;25.10;89.90
3628;DHT22;1830;49.000;12.074;2023-07-31T14:18:51;25.10;89.70
3628;DHT22;1830;49.000;12.074;2023-07-31T14:21:22;25.20;89.50
3628;DHT22;1830;49.000;12.074;2023-07-31T14:23:49;25.10;88.90
3628;DHT22;1830;49.000;12.074;2023-07-31T14:26:16;25.10;89.40
3628;DHT22;1830;49.000;12.074;2023-07-31T14:28:43;25.20;89.00
3628;DHT22;1830;49.000;12.074;2023-07-31T14:31:10;25.00;87.90
3628;DHT22;1830;49.000;12.074;2023-07-31T14:33:40;24.90;89.50
3628;DHT22;1830;49.000;12.074;2023-07-31T14:36:08;25.00;91.00
3628;DHT22;1830;49.000;12.074;2023-07-31T14:38:36;25.10;90.70
3628;DHT22;1830;49.000;12.074;2023-07-31T14:41:02;25.10;90.30
3628;DHT22;1830;49.000;12.074;2023-07-31T14:43:30;25.20;89.60
3628;DHT22;1830;49.000;12.074;2023-07-31T14:45:57;25.30;89.70
3628;DHT22;1830;49.000;12.074;2023-07-31T14:48:25;25.20;89.40
3628;DHT22;1830;49.000;12.074;2023-07-31T14:50:53;25.00;89.60
3628;DHT22;1830;49.000;12.074;2023-07-31T14:53:21;25.10;90.20
3628;DHT22;1830;49.000;12.074;2023-07-31T14:55:52;25.20;90.00
3628;DHT22;1830;49.000;12.074;2023-07-31T14:58:20;25.30;89.10
3628;DHT22;1830;49.000;12.074;2023-07-31T15:00:46;25.30;87.80
3628;DHT22;1830;49.000;12.074;2023-07-31T15:03:13;25.30;86.10
3628;DHT22;1830;49.000;12.074;2023-07-31T15:05:40;25.20;87.30
3628;DHT22;1830;49.000;12.074;2023-07-31T15:08:07;25.20;87.20
3628;DHT22;1830;49.000;12.074;2023-07-31T15:10:34;25.10;87.80
3628;DHT22;1830;49.000;12.074;2023-07-31T15:13:02;25.10;88.80
3628;DHT22;1830;49.000;12.074;2023-07-31T15:15:29;25.00;89.50
3628;DHT22;1830;49.000;12.074;2023-07-31T15:17:56;24.90;90.10
3628;DHT22;1830;49.000;12.074;2023-07-31T15:20:23;24.70;89.20
3628;DHT22;1830;49.000;12.074;2023-07-31T15:22:50;24.60;90.00
3628;DHT22;1830;49.000;12.074;2023-07-31T15:25:17;24.40;90.70
3628;DHT22;1830;49.000;12.074;2023-07-31T15:27:44;24.30;90.80
3628;DHT22;1830;49.000;12.074;2023-07-31T15:30:12;24.20;90.70
3628;DHT22;1830;49.000;12.074;2023-07-31T15:32:39;24.20;91.10
3628;DHT22;1830;49.000;12.074;2023-07-31T15:35:06;24.10;90.70
3628;DHT22;1830;49.000;12.074;2023-07-31T15:37:33;23.90;90.60
3628;DHT22;1830;49.000;12.074;2023-07-31T15:40:00;23.80;90.70
3628;DHT22;1830;49.000;12.074;2023-07-31T15:42:27;23.90;90.40
3628;DHT22;1830;49.000;12.074;2023-07-31T15:44:54;23.90;90.50
3628;DHT22;1830;49.000;12.074;2023-07-31T15:47:22;23.80;90.70
3628;DHT22;1830;49.000;12.074;2023-07-31T15:49:48;23.80;90.60
3628;DHT22;1830;49.000;12.074;2023-07-31T15:52:15;23.70;90.60
3628;DHT22;1830;49.000;12.074;2023-07-31T15:54:42;23.60;91.40
3628;DHT22;1830;49.000;12.074;2023-07-31T15:57:09;23.60;91.80
3628;DHT22;1830;49.000;12.074;2023-07-31T15:59:36;23.60;91.80
3628;DHT22;1830;49.000;12.074;2023-07-31T16:02:03;23.60;92.20
3628;DHT22;1830;49.000;12.074;2023-07-31T16:04:31;23.50;92.00
3628;DHT22;1830;49.000;12.074;2023-07-31T16:06:58;23.50;91.80